sensor_id;sensor_type;location;lat;lon;timestamp;P1;durP1;ratioP1;P2;durP2;ratioP2
53927;SDS011;39837;47.630;18.822;2023-09-19T00:01:57;2.67;;;2.45;;
53927;SDS011;39837;47.630;18.822;2023-09-19T00:04:41;4.10;;;2.10;;
53927;SDS011;39837;47.630;18.822;2023-09-19T00:07:26;2.03;;;1.92;;
53927;SDS011;39837;47.630;18.822;2023-09-19T00:10:11;3.80;;;3.60;;
53927;SDS011;39837;47.630;18.822;2023-09-19T00:12:55;3.28;;;2.78;;
53927;SDS011;39837;47.630;18.822;2023-09-19T00:15:43;1.52;;;1.52;;
53927;SDS011;39837;47.630;18.822;2023-09-19T00:18:32;7.15;;;2.40;;
53927;SDS011;39837;47.630;18.822;2023-09-19T00:21:18;2.63;;;2.47;;
53927;SDS011;39837;47.630;18.822;2023-09-19T00:24:04;2.00;;;1.90;;
53927;SDS011;39837;47.630;18.822;2023-09-19T00:26:49;2.42;;;2.28;;
53927;SDS011;39837;47.630;18.822;2023-09-19T00:29:33;3.28;;;2.90;;
53927;SDS011;39837;47.630;18.822;2023-09-19T00:32:17;3.17;;;2.67;;
53927;SDS011;39837;47.630;18.822;2023-09-19T00:35:01;3.85;;;3.13;;
53927;SDS011;39837;47.630;18.822;2023-09-19T00:37:46;7.47;;;3.30;;
53927;SDS011;39837;47.630;18.822;2023-09-19T00:40:30;5.25;;;3.05;;
53927;SDS011;39837;47.630;18.822;2023-09-19T00:43:16;3.55;;;3.08;;
53927;SDS011;39837;47.630;18.822;2023-09-19T00:46:00;2.45;;;2.35;;
53927;SDS011;39837;47.630;18.822;2023-09-19T00:48:46;3.35;;;2.75;;
53927;SDS011;39837;47.630;18.822;2023-09-19T00:51:30;2.60;;;2.40;;
53927;SDS011;39837;47.630;18.822;2023-09-19T00:54:14;18.45;;;3.47;;
53927;SDS011;39837;47.630;18.822;2023-09-19T00:57:02;26.95;;;4.10;;
53927;SDS011;39837;47.630;18.822;2023-09-19T00:59:46;3.22;;;3.03;;
53927;SDS011;39837;47.630;18.822;2023-09-19T01:02:34;12.13;;;3.40;;
53927;SDS011;39837;47.630;18.822;2023-09-19T01:05:18;8.85;;;3.25;;
53927;SDS011;39837;47.630;18.822;2023-09-19T01:08:03;2.85;;;2.55;;
53927;SDS011;39837;47.630;18.822;2023-09-19T01:10:59;5.20;;;3.75;;
53927;SDS011;39837;47.630;18.822;2023-09-19T01:13:51;2.95;;;2.42;;
53927;SDS011;39837;47.630;18.822;2023-09-19T01:16:53;1.65;;;1.60;;
53927;SDS011;39837;47.630;18.822;2023-09-19T01:22:54;3.15;;;2.90;;
53927;SDS011;39837;47.630;18.822;2023-09-19T01:32:25;2.22;;;2.13;;
53927;SDS011;39837;47.630;18.822;2023-09-19T01:35:09;5.82;;;1.95;;
53927;SDS011;39837;47.630;18.822;2023-09-19T01:37:56;1.85;;;1.77;;
53927;SDS011;39837;47.630;18.822;2023-09-19T01:40:41;1.88;;;1.77;;
53927;SDS011;39837;47.630;18.822;2023-09-19T01:43:27;2.72;;;1.95;;
53927;SDS011;39837;47.630;18.822;2023-09-19T01:46:18;2.03;;;1.95;;
53927;SDS011;39837;47.630;18.822;2023-09-19T01:52:13;6.25;;;2.42;;
53927;SDS011;39837;47.630;18.822;2023-09-19T01:55:02;3.42;;;1.67;;
53927;SDS011;39837;47.630;18.822;2023-09-19T02:00:52;4.53;;;2.33;;
53927;SDS011;39837;47.630;18.822;2023-09-19T02:03:38;2.20;;;2.00;;
53927;SDS011;39837;47.630;18.822;2023-09-19T02:06:24;3.50;;;2.55;;
53927;SDS011;39837;47.630;18.822;2023-09-19T02:09:09;4.03;;;2.47;;
53927;SDS011;39837;47.630;18.822;2023-09-19T02:11:52;2.33;;;1.80;;
53927;SDS011;39837;47.630;18.822;2023-09-19T02:14:39;4.60;;;2.25;;
53927;SDS011;39837;47.630;18.822;2023-09-19T02:17:23;2.50;;;2.40;;
53927;SDS011;39837;47.630;18.822;2023-09-19T02:20:10;3.35;;;2.13;;
53927;SDS011;39837;47.630;18.822;2023-09-19T02:22:58;2.25;;;2.13;;
53927;SDS011;39837;47.630;18.822;2023-09-19T02:25:42;1.98;;;1.88;;
53927;SDS011;39837;47.630;18.822;2023-09-19T02:28:28;3.58;;;2.72;;
53927;SDS011;39837;47.630;18.822;2023-09-19T02:31:15;4.07;;;2.30;;
53927;SDS011;39837;47.630;18.822;2023-09-19T02:34:00;2.65;;;2.55;;
53927;SDS011;39837;47.630;18.822;2023-09-19T02:36:44;3.25;;;2.63;;
53927;SDS011;39837;47.630;18.822;2023-09-19T02:39:28;1.75;;;1.70;;
53927;SDS011;39837;47.630;18.822;2023-09-19T02:42:12;16.38;;;3.58;;
53927;SDS011;39837;47.630;18.822;2023-09-19T02:44:56;14.32;;;2.58;;
53927;SDS011;39837;47.630;18.822;2023-09-19T02:47:40;7.45;;;2.17;;
53927;SDS011;39837;47.630;18.822;2023-09-19T02:50:24;1.95;;;1.90;;
53927;SDS011;39837;47.630;18.822;2023-09-19T02:53:08;2.55;;;2.40;;
53927;SDS011;39837;47.630;18.822;2023-09-19T02:55:54;2.60;;;2.42;;
53927;SDS011;39837;47.630;18.822;2023-09-19T02:58:38;5.00;;;2.28;;
53927;SDS011;39837;47.630;18.822;2023-09-19T03:01:22;2.97;;;2.35;;
53927;SDS011;39837;47.630;18.822;2023-09-19T03:04:06;2.28;;;2.17;;
53927;SDS011;39837;47.630;18.822;2023-09-19T03:06:50;6.07;;;2.15;;
53927;SDS011;39837;47.630;18.822;2023-09-19T03:09:34;2.55;;;2.35;;
53927;SDS011;39837;47.630;18.822;2023-09-19T03:12:19;1.30;;;1.30;;
53927;SDS011;39837;47.630;18.822;2023-09-19T03:15:03;3.55;;;3.35;;
53927;SDS011;39837;47.630;18.822;2023-09-19T03:17:52;6.35;;;2.47;;
53927;SDS011;39837;47.630;18.822;2023-09-19T03:20:37;4.93;;;2.70;;
53927;SDS011;39837;47.630;18.822;2023-09-19T03:23:22;1.83;;;1.73;;
53927;SDS011;39837;47.630;18.822;2023-09-19T03:26:06;1.98;;;1.88;;
53927;SDS011;39837;47.630;18.822;2023-09-19T03:28:50;3.60;;;2.22;;
53927;SDS011;39837;47.630;18.822;2023-09-19T03:31:34;3.25;;;2.03;;
53927;SDS011;39837;47.630;18.822;2023-09-19T03:34:20;1.80;;;1.73;;
53927;SDS011;39837;47.630;18.822;2023-09-19T03:37:04;5.32;;;1.85;;
53927;SDS011;39837;47.630;18.822;2023-09-19T03:39:48;2.88;;;1.75;;
53927;SDS011;39837;47.630;18.822;2023-09-19T03:42:32;2.83;;;1.27;;
53927;SDS011;39837;47.630;18.822;2023-09-19T03:45:19;1.20;;;1.20;;
53927;SDS011;39837;47.630;18.822;2023-09-19T03:48:07;6.55;;;2.20;;
53927;SDS011;39837;47.630;18.822;2023-09-19T03:50:52;2.20;;;2.00;;
53927;SDS011;39837;47.630;18.822;2023-09-19T03:53:38;1.17;;;1.17;;
53927;SDS011;39837;47.630;18.822;2023-09-19T03:56:21;0.80;;;0.80;;
53927;SDS011;39837;47.630;18.822;2023-09-19T03:59:05;1.42;;;1.33;;
53927;SDS011;39837;47.630;18.822;2023-09-19T04:01:52;1.30;;;1.08;;
53927;SDS011;39837;47.630;18.822;2023-09-19T04:04:39;1.20;;;1.20;;
53927;SDS011;39837;47.630;18.822;2023-09-19T04:07:23;0.98;;;0.98;;
53927;SDS011;39837;47.630;18.822;2023-09-19T04:10:09;2.15;;;1.00;;
53927;SDS011;39837;47.630;18.822;2023-09-19T04:12:55;0.80;;;0.80;;
53927;SDS011;39837;47.630;18.822;2023-09-19T04:15:39;0.90;;;0.90;;
53927;SDS011;39837;47.630;18.822;2023-09-19T04:18:25;0.90;;;0.90;;
53927;SDS011;39837;47.630;18.822;2023-09-19T04:21:09;0.75;;;0.75;;
53927;SDS011;39837;47.630;18.822;2023-09-19T04:23:53;0.50;;;0.50;;
53927;SDS011;39837;47.630;18.822;2023-09-19T04:26:37;0.63;;;0.63;;
53927;SDS011;39837;47.630;18.822;2023-09-19T04:29:21;0.63;;;0.63;;
53927;SDS011;39837;47.630;18.822;2023-09-19T04:32:05;0.65;;;0.65;;
53927;SDS011;39837;47.630;18.822;2023-09-19T04:34:49;1.08;;;0.95;;
53927;SDS011;39837;47.630;18.822;2023-09-19T04:37:38;0.57;;;0.57;;
53927;SDS011;39837;47.630;18.822;2023-09-19T04:40:23;0.60;;;0.60;;
53927;SDS011;39837;47.630;18.822;2023-09-19T04:43:10;0.50;;;0.50;;
53927;SDS011;39837;47.630;18.822;2023-09-19T04:45:54;0.60;;;0.60;;
53927;SDS011;39837;47.630;18.822;2023-09-19T04:48:39;0.50;;;0.50;;
53927;SDS011;39837;47.630;18.822;2023-09-19T04:51:23;0.70;;;0.70;;
53927;SDS011;39837;47.630;18.822;2023-09-19T04:54:07;4.22;;;0.90;;
53927;SDS011;39837;47.630;18.822;2023-09-19T04:56:51;0.80;;;0.80;;
53927;SDS011;39837;47.630;18.822;2023-09-19T04:59:35;0.57;;;0.57;;
53927;SDS011;39837;47.630;18.822;2023-09-19T05:02:20;0.65;;;0.65;;
53927;SDS011;39837;47.630;18.822;2023-09-19T05:05:04;0.82;;;0.82;;
53927;SDS011;39837;47.630;18.822;2023-09-19T05:10:35;0.52;;;0.52;;
53927;SDS011;39837;47.630;18.822;2023-09-19T05:13:21;1.50;;;0.93;;
53927;SDS011;39837;47.630;18.822;2023-09-19T05:16:07;0.55;;;0.55;;
53927;SDS011;39837;47.630;18.822;2023-09-19T05:18:53;1.98;;;1.10;;
53927;SDS011;39837;47.630;18.822;2023-09-19T05:21:37;0.60;;;0.60;;
53927;SDS011;39837;47.630;18.822;2023-09-19T05:24:22;0.70;;;0.70;;
53927;SDS011;39837;47.630;18.822;2023-09-19T05:27:07;1.55;;;0.95;;
53927;SDS011;39837;47.630;18.822;2023-09-19T05:29:51;0.82;;;0.82;;
53927;SDS011;39837;47.630;18.822;2023-09-19T05:32:36;0.60;;;0.60;;
53927;SDS011;39837;47.630;18.822;2023-09-19T05:35:20;0.70;;;0.70;;
53927;SDS011;39837;47.630;18.822;2023-09-19T05:38:05;0.82;;;0.82;;
53927;SDS011;39837;47.630;18.822;2023-09-19T05:40:52;0.70;;;0.70;;
53927;SDS011;39837;47.630;18.822;2023-09-19T05:43:37;0.43;;;0.43;;
53927;SDS011;39837;47.630;18.822;2023-09-19T05:46:21;0.80;;;0.80;;
53927;SDS011;39837;47.630;18.822;2023-09-19T05:49:05;0.50;;;0.50;;
53927;SDS011;39837;47.630;18.822;2023-09-19T05:51:50;0.77;;;0.77;;
53927;SDS011;39837;47.630;18.822;2023-09-19T05:54:37;1.00;;;1.00;;
53927;SDS011;39837;47.630;18.822;2023-09-19T05:57:22;0.70;;;0.70;;
53927;SDS011;39837;47.630;18.822;2023-09-19T06:00:08;0.70;;;0.70;;
53927;SDS011;39837;47.630;18.822;2023-09-19T06:02:56;0.90;;;0.90;;
53927;SDS011;39837;47.630;18.822;2023-09-19T06:05:41;0.90;;;0.90;;
53927;SDS011;39837;47.630;18.822;2023-09-19T06:08:25;1.00;;;1.00;;
53927;SDS011;39837;47.630;18.822;2023-09-19T06:11:09;0.52;;;0.52;;
53927;SDS011;39837;47.630;18.822;2023-09-19T06:13:53;0.93;;;0.93;;
53927;SDS011;39837;47.630;18.822;2023-09-19T06:16:37;0.70;;;0.70;;
53927;SDS011;39837;47.630;18.822;2023-09-19T06:19:25;4.03;;;1.00;;
53927;SDS011;39837;47.630;18.822;2023-09-19T06:22:09;0.80;;;0.80;;
53927;SDS011;39837;47.630;18.822;2023-09-19T06:24:54;0.70;;;0.70;;
53927;SDS011;39837;47.630;18.822;2023-09-19T06:27:41;0.65;;;0.65;;
53927;SDS011;39837;47.630;18.822;2023-09-19T06:30:26;1.00;;;1.00;;
53927;SDS011;39837;47.630;18.822;2023-09-19T06:33:13;1.05;;;1.05;;
53927;SDS011;39837;47.630;18.822;2023-09-19T06:35:57;0.93;;;0.93;;
53927;SDS011;39837;47.630;18.822;2023-09-19T06:38:44;1.58;;;1.20;;
53927;SDS011;39837;47.630;18.822;2023-09-19T06:41:28;0.90;;;0.90;;
53927;SDS011;39837;47.630;18.822;2023-09-19T06:44:13;0.90;;;0.90;;
53927;SDS011;39837;47.630;18.822;2023-09-19T06:46:58;0.70;;;0.70;;
53927;SDS011;39837;47.630;18.822;2023-09-19T06:49:42;0.80;;;0.80;;
53927;SDS011;39837;47.630;18.822;2023-09-19T06:52:27;0.60;;;0.60;;
53927;SDS011;39837;47.630;18.822;2023-09-19T06:55:12;0.82;;;0.82;;
53927;SDS011;39837;47.630;18.822;2023-09-19T06:57:57;1.10;;;1.10;;
53927;SDS011;39837;47.630;18.822;2023-09-19T07:00:41;0.60;;;0.60;;
53927;SDS011;39837;47.630;18.822;2023-09-19T07:03:25;0.52;;;0.52;;
53927;SDS011;39837;47.630;18.822;2023-09-19T07:06:12;0.60;;;0.60;;
53927;SDS011;39837;47.630;18.822;2023-09-19T07:08:56;0.63;;;0.63;;
53927;SDS011;39837;47.630;18.822;2023-09-19T07:11:40;1.20;;;1.10;;
53927;SDS011;39837;47.630;18.822;2023-09-19T07:14:24;0.60;;;0.60;;
53927;SDS011;39837;47.630;18.822;2023-09-19T07:17:07;0.70;;;0.70;;
53927;SDS011;39837;47.630;18.822;2023-09-19T07:19:52;2.22;;;0.75;;
53927;SDS011;39837;47.630;18.822;2023-09-19T07:22:36;0.65;;;0.65;;
53927;SDS011;39837;47.630;18.822;2023-09-19T07:25:22;0.70;;;0.70;;
53927;SDS011;39837;47.630;18.822;2023-09-19T07:28:06;0.60;;;0.60;;
53927;SDS011;39837;47.630;18.822;2023-09-19T07:30:50;0.77;;;0.77;;
53927;SDS011;39837;47.630;18.822;2023-09-19T07:33:36;1.08;;;1.08;;
53927;SDS011;39837;47.630;18.822;2023-09-19T07:36:20;0.60;;;0.60;;
53927;SDS011;39837;47.630;18.822;2023-09-19T07:39:04;0.60;;;0.60;;
53927;SDS011;39837;47.630;18.822;2023-09-19T07:44:37;2.85;;;0.98;;
53927;SDS011;39837;47.630;18.822;2023-09-19T07:47:21;0.77;;;0.77;;
53927;SDS011;39837;47.630;18.822;2023-09-19T07:50:05;1.05;;;0.90;;
53927;SDS011;39837;47.630;18.822;2023-09-19T07:52:51;0.60;;;0.60;;
53927;SDS011;39837;47.630;18.822;2023-09-19T07:55:36;0.70;;;0.70;;
53927;SDS011;39837;47.630;18.822;2023-09-19T07:58:20;0.70;;;0.70;;
53927;SDS011;39837;47.630;18.822;2023-09-19T08:01:07;0.80;;;0.80;;
53927;SDS011;39837;47.630;18.822;2023-09-19T08:03:51;0.83;;;0.83;;
53927;SDS011;39837;47.630;18.822;2023-09-19T08:06:35;1.00;;;1.00;;
53927;SDS011;39837;47.630;18.822;2023-09-19T08:09:21;0.63;;;0.63;;
53927;SDS011;39837;47.630;18.822;2023-09-19T08:12:06;0.93;;;0.93;;
53927;SDS011;39837;47.630;18.822;2023-09-19T08:14:54;1.55;;;0.95;;
53927;SDS011;39837;47.630;18.822;2023-09-19T08:17:38;0.82;;;0.82;;
53927;SDS011;39837;47.630;18.822;2023-09-19T08:20:22;2.15;;;1.15;;
53927;SDS011;39837;47.630;18.822;2023-09-19T08:23:06;0.80;;;0.80;;
53927;SDS011;39837;47.630;18.822;2023-09-19T08:25:55;0.95;;;0.95;;
53927;SDS011;39837;47.630;18.822;2023-09-19T08:28:40;0.70;;;0.70;;
53927;SDS011;39837;47.630;18.822;2023-09-19T08:31:24;0.55;;;0.55;;
53927;SDS011;39837;47.630;18.822;2023-09-19T08:34:10;0.70;;;0.70;;
53927;SDS011;39837;47.630;18.822;2023-09-19T08:36:54;2.65;;;0.85;;
53927;SDS011;39837;47.630;18.822;2023-09-19T08:39:39;0.70;;;0.70;;
53927;SDS011;39837;47.630;18.822;2023-09-19T08:42:23;0.80;;;0.80;;
53927;SDS011;39837;47.630;18.822;2023-09-19T08:45:08;1.40;;;0.90;;
53927;SDS011;39837;47.630;18.822;2023-09-19T08:50:50;0.88;;;0.88;;
53927;SDS011;39837;47.630;18.822;2023-09-19T08:53:50;1.17;;;0.73;;
53927;SDS011;39837;47.630;18.822;2023-09-19T08:56:35;0.47;;;0.47;;
53927;SDS011;39837;47.630;18.822;2023-09-19T08:59:21;0.70;;;0.70;;
53927;SDS011;39837;47.630;18.822;2023-09-19T09:02:12;0.70;;;0.70;;
53927;SDS011;39837;47.630;18.822;2023-09-19T09:04:58;0.57;;;0.57;;
53927;SDS011;39837;47.630;18.822;2023-09-19T09:07:42;1.08;;;1.00;;
53927;SDS011;39837;47.630;18.822;2023-09-19T09:10:27;0.70;;;0.70;;
53927;SDS011;39837;47.630;18.822;2023-09-19T09:13:11;2.30;;;1.23;;
53927;SDS011;39837;47.630;18.822;2023-09-19T09:15:58;1.15;;;1.15;;
53927;SDS011;39837;47.630;18.822;2023-09-19T09:18:42;0.93;;;0.93;;
53927;SDS011;39837;47.630;18.822;2023-09-19T09:21:28;1.55;;;1.00;;
53927;SDS011;39837;47.630;18.822;2023-09-19T09:24:30;0.55;;;0.55;;
53927;SDS011;39837;47.630;18.822;2023-09-19T09:27:17;0.60;;;0.60;;
53927;SDS011;39837;47.630;18.822;2023-09-19T09:30:01;0.90;;;0.90;;
53927;SDS011;39837;47.630;18.822;2023-09-19T09:32:47;0.70;;;0.70;;
53927;SDS011;39837;47.630;18.822;2023-09-19T09:35:31;0.90;;;0.90;;
53927;SDS011;39837;47.630;18.822;2023-09-19T09:38:17;0.70;;;0.70;;
53927;SDS011;39837;47.630;18.822;2023-09-19T09:41:02;0.60;;;0.60;;
53927;SDS011;39837;47.630;18.822;2023-09-19T09:43:49;0.60;;;0.60;;
53927;SDS011;39837;47.630;18.822;2023-09-19T09:46:33;0.68;;;0.68;;
53927;SDS011;39837;47.630;18.822;2023-09-19T09:49:35;0.88;;;0.88;;
53927;SDS011;39837;47.630;18.822;2023-09-19T09:52:20;1.10;;;1.10;;
53927;SDS011;39837;47.630;18.822;2023-09-19T09:55:07;0.70;;;0.70;;
53927;SDS011;39837;47.630;18.822;2023-09-19T09:58:15;0.60;;;0.60;;
53927;SDS011;39837;47.630;18.822;2023-09-19T10:01:05;1.08;;;1.05;;
53927;SDS011;39837;47.630;18.822;2023-09-19T10:03:58;1.25;;;1.15;;
53927;SDS011;39837;47.630;18.822;2023-09-19T10:06:44;0.60;;;0.60;;
53927;SDS011;39837;47.630;18.822;2023-09-19T10:09:44;0.77;;;0.77;;
53927;SDS011;39837;47.630;18.822;2023-09-19T10:12:29;0.93;;;0.93;;
53927;SDS011;39837;47.630;18.822;2023-09-19T10:15:13;0.73;;;0.73;;
53927;SDS011;39837;47.630;18.822;2023-09-19T10:18:00;0.70;;;0.70;;
53927;SDS011;39837;47.630;18.822;2023-09-19T10:20:45;1.77;;;1.25;;
53927;SDS011;39837;47.630;18.822;2023-09-19T10:23:30;0.60;;;0.60;;
53927;SDS011;39837;47.630;18.822;2023-09-19T10:26:17;0.55;;;0.55;;
53927;SDS011;39837;47.630;18.822;2023-09-19T10:29:02;1.00;;;1.00;;
53927;SDS011;39837;47.630;18.822;2023-09-19T10:31:50;1.20;;;1.10;;
53927;SDS011;39837;47.630;18.822;2023-09-19T10:34:36;0.80;;;0.80;;
53927;SDS011;39837;47.630;18.822;2023-09-19T10:37:25;0.60;;;0.60;;
53927;SDS011;39837;47.630;18.822;2023-09-19T10:40:10;0.88;;;0.88;;
53927;SDS011;39837;47.630;18.822;2023-09-19T10:42:58;0.63;;;0.63;;
53927;SDS011;39837;47.630;18.822;2023-09-19T10:45:47;0.50;;;0.50;;
53927;SDS011;39837;47.630;18.822;2023-09-19T10:48:33;1.02;;;1.02;;
53927;SDS011;39837;47.630;18.822;2023-09-19T10:51:21;0.60;;;0.60;;
53927;SDS011;39837;47.630;18.822;2023-09-19T10:54:13;1.20;;;0.93;;
53927;SDS011;39837;47.630;18.822;2023-09-19T10:56:59;0.47;;;0.47;;
53927;SDS011;39837;47.630;18.822;2023-09-19T11:00:05;0.70;;;0.70;;
53927;SDS011;39837;47.630;18.822;2023-09-19T11:06:14;3.13;;;1.20;;
53927;SDS011;39837;47.630;18.822;2023-09-19T11:09:02;0.60;;;0.60;;
53927;SDS011;39837;47.630;18.822;2023-09-19T11:11:59;0.77;;;0.77;;
53927;SDS011;39837;47.630;18.822;2023-09-19T11:14:44;0.73;;;0.73;;
53927;SDS011;39837;47.630;18.822;2023-09-19T11:20:21;0.60;;;0.60;;
53927;SDS011;39837;47.630;18.822;2023-09-19T11:26:10;0.82;;;0.82;;
53927;SDS011;39837;47.630;18.822;2023-09-19T11:29:31;0.68;;;0.68;;
53927;SDS011;39837;47.630;18.822;2023-09-19T11:32:14;0.90;;;0.90;;
53927;SDS011;39837;47.630;18.822;2023-09-19T11:35:06;0.70;;;0.70;;
53927;SDS011;39837;47.630;18.822;2023-09-19T11:40:35;0.70;;;0.70;;
53927;SDS011;39837;47.630;18.822;2023-09-19T11:43:29;0.70;;;0.70;;
53927;SDS011;39837;47.630;18.822;2023-09-19T11:46:18;1.50;;;1.23;;
53927;SDS011;39837;47.630;18.822;2023-09-19T11:49:08;0.93;;;0.93;;
53927;SDS011;39837;47.630;18.822;2023-09-19T11:52:04;0.50;;;0.50;;
53927;SDS011;39837;47.630;18.822;2023-09-19T11:57:39;2.92;;;0.98;;
53927;SDS011;39837;47.630;18.822;2023-09-19T12:00:25;0.93;;;0.93;;
53927;SDS011;39837;47.630;18.822;2023-09-19T12:05:55;1.02;;;1.02;;
53927;SDS011;39837;47.630;18.822;2023-09-19T12:08:39;0.63;;;0.63;;
53927;SDS011;39837;47.630;18.822;2023-09-19T12:11:26;0.82;;;0.82;;
53927;SDS011;39837;47.630;18.822;2023-09-19T12:14:21;0.90;;;0.90;;
53927;SDS011;39837;47.630;18.822;2023-09-19T12:17:06;0.68;;;0.68;;
53927;SDS011;39837;47.630;18.822;2023-09-19T12:19:55;0.95;;;0.95;;
53927;SDS011;39837;47.630;18.822;2023-09-19T12:22:44;0.55;;;0.55;;
53927;SDS011;39837;47.630;18.822;2023-09-19T12:25:41;0.68;;;0.68;;
53927;SDS011;39837;47.630;18.822;2023-09-19T12:28:30;0.80;;;0.80;;
53927;SDS011;39837;47.630;18.822;2023-09-19T12:31:14;0.60;;;0.60;;
53927;SDS011;39837;47.630;18.822;2023-09-19T12:34:01;0.90;;;0.90;;
53927;SDS011;39837;47.630;18.822;2023-09-19T12:36:46;0.60;;;0.60;;
53927;SDS011;39837;47.630;18.822;2023-09-19T12:39:31;0.80;;;0.80;;
53927;SDS011;39837;47.630;18.822;2023-09-19T12:42:15;1.55;;;0.88;;
53927;SDS011;39837;47.630;18.822;2023-09-19T12:45:01;1.05;;;1.05;;
53927;SDS011;39837;47.630;18.822;2023-09-19T12:48:19;0.70;;;0.70;;
53927;SDS011;39837;47.630;18.822;2023-09-19T12:51:12;1.50;;;1.48;;
53927;SDS011;39837;47.630;18.822;2023-09-19T12:53:57;0.57;;;0.57;;
53927;SDS011;39837;47.630;18.822;2023-09-19T12:56:42;0.88;;;0.88;;
53927;SDS011;39837;47.630;18.822;2023-09-19T12:59:29;0.98;;;0.98;;
53927;SDS011;39837;47.630;18.822;2023-09-19T13:02:15;2.35;;;1.35;;
53927;SDS011;39837;47.630;18.822;2023-09-19T13:05:03;0.80;;;0.80;;
53927;SDS011;39837;47.630;18.822;2023-09-19T13:07:50;1.00;;;1.00;;
53927;SDS011;39837;47.630;18.822;2023-09-19T13:10:59;1.17;;;1.13;;
53927;SDS011;39837;47.630;18.822;2023-09-19T13:17:03;2.08;;;1.25;;
53927;SDS011;39837;47.630;18.822;2023-09-19T13:19:49;1.00;;;1.00;;
53927;SDS011;39837;47.630;18.822;2023-09-19T13:25:29;0.95;;;0.93;;
53927;SDS011;39837;47.630;18.822;2023-09-19T13:28:13;0.95;;;0.95;;
53927;SDS011;39837;47.630;18.822;2023-09-19T13:30:58;4.75;;;0.98;;
53927;SDS011;39837;47.630;18.822;2023-09-19T13:33:45;0.68;;;0.68;;
53927;SDS011;39837;47.630;18.822;2023-09-19T13:36:30;0.70;;;0.70;;
53927;SDS011;39837;47.630;18.822;2023-09-19T13:39:15;2.05;;;1.13;;
53927;SDS011;39837;47.630;18.822;2023-09-19T13:42:00;0.77;;;0.77;;
53927;SDS011;39837;47.630;18.822;2023-09-19T13:44:46;0.73;;;0.73;;
53927;SDS011;39837;47.630;18.822;2023-09-19T13:47:33;0.82;;;0.80;;
53927;SDS011;39837;47.630;18.822;2023-09-19T13:50:17;1.08;;;1.08;;
53927;SDS011;39837;47.630;18.822;2023-09-19T13:53:08;1.08;;;1.00;;
53927;SDS011;39837;47.630;18.822;2023-09-19T13:55:52;0.57;;;0.57;;
53927;SDS011;39837;47.630;18.822;2023-09-19T13:58:36;0.80;;;0.80;;
53927;SDS011;39837;47.630;18.822;2023-09-19T14:01:20;0.70;;;0.70;;
53927;SDS011;39837;47.630;18.822;2023-09-19T14:04:04;0.60;;;0.60;;
53927;SDS011;39837;47.630;18.822;2023-09-19T14:06:49;1.00;;;1.00;;
53927;SDS011;39837;47.630;18.822;2023-09-19T14:09:33;0.93;;;0.93;;
53927;SDS011;39837;47.630;18.822;2023-09-19T14:12:17;0.80;;;0.80;;
53927;SDS011;39837;47.630;18.822;2023-09-19T14:15:01;0.75;;;0.75;;
53927;SDS011;39837;47.630;18.822;2023-09-19T14:17:46;0.67;;;0.67;;
53927;SDS011;39837;47.630;18.822;2023-09-19T14:20:30;0.77;;;0.77;;
53927;SDS011;39837;47.630;18.822;2023-09-19T14:23:15;0.60;;;0.60;;
53927;SDS011;39837;47.630;18.822;2023-09-19T14:26:00;4.28;;;1.45;;
53927;SDS011;39837;47.630;18.822;2023-09-19T14:28:44;0.60;;;0.60;;
53927;SDS011;39837;47.630;18.822;2023-09-19T14:31:28;0.88;;;0.88;;
53927;SDS011;39837;47.630;18.822;2023-09-19T14:34:13;0.80;;;0.80;;
53927;SDS011;39837;47.630;18.822;2023-09-19T14:36:58;0.80;;;0.80;;
53927;SDS011;39837;47.630;18.822;2023-09-19T14:39:43;0.60;;;0.60;;
53927;SDS011;39837;47.630;18.822;2023-09-19T14:42:30;1.02;;;1.02;;
53927;SDS011;39837;47.630;18.822;2023-09-19T14:45:14;0.70;;;0.70;;
53927;SDS011;39837;47.630;18.822;2023-09-19T14:48:01;1.38;;;0.98;;
53927;SDS011;39837;47.630;18.822;2023-09-19T14:50:49;0.60;;;0.60;;
53927;SDS011;39837;47.630;18.822;2023-09-19T14:53:35;0.57;;;0.57;;
53927;SDS011;39837;47.630;18.822;2023-09-19T14:56:21;2.17;;;1.23;;
53927;SDS011;39837;47.630;18.822;2023-09-19T14:59:06;3.67;;;0.95;;
53927;SDS011;39837;47.630;18.822;2023-09-19T15:01:51;0.63;;;0.63;;
53927;SDS011;39837;47.630;18.822;2023-09-19T15:04:36;0.60;;;0.60;;
53927;SDS011;39837;47.630;18.822;2023-09-19T15:07:21;0.60;;;0.60;;
53927;SDS011;39837;47.630;18.822;2023-09-19T15:10:06;0.57;;;0.57;;
53927;SDS011;39837;47.630;18.822;2023-09-19T15:12:53;0.50;;;0.50;;
53927;SDS011;39837;47.630;18.822;2023-09-19T15:15:37;0.60;;;0.60;;
53927;SDS011;39837;47.630;18.822;2023-09-19T15:18:21;0.80;;;0.80;;
53927;SDS011;39837;47.630;18.822;2023-09-19T15:21:06;1.13;;;1.13;;
53927;SDS011;39837;47.630;18.822;2023-09-19T15:23:53;0.82;;;0.82;;
53927;SDS011;39837;47.630;18.822;2023-09-19T15:26:37;1.70;;;0.80;;
53927;SDS011;39837;47.630;18.822;2023-09-19T15:29:24;0.70;;;0.70;;
53927;SDS011;39837;47.630;18.822;2023-09-19T15:32:09;1.55;;;1.40;;
53927;SDS011;39837;47.630;18.822;2023-09-19T15:34:54;0.88;;;0.88;;
53927;SDS011;39837;47.630;18.822;2023-09-19T15:37:38;1.00;;;1.00;;
53927;SDS011;39837;47.630;18.822;2023-09-19T15:40:23;0.68;;;0.68;;
53927;SDS011;39837;47.630;18.822;2023-09-19T15:45:53;0.82;;;0.82;;
53927;SDS011;39837;47.630;18.822;2023-09-19T15:48:37;0.80;;;0.80;;
53927;SDS011;39837;47.630;18.822;2023-09-19T15:51:22;0.75;;;0.75;;
53927;SDS011;39837;47.630;18.822;2023-09-19T15:54:07;0.65;;;0.65;;
53927;SDS011;39837;47.630;18.822;2023-09-19T15:56:52;0.70;;;0.70;;
53927;SDS011;39837;47.630;18.822;2023-09-19T15:59:38;0.68;;;0.68;;
53927;SDS011;39837;47.630;18.822;2023-09-19T16:02:23;0.70;;;0.70;;
53927;SDS011;39837;47.630;18.822;2023-09-19T16:05:09;0.70;;;0.70;;
53927;SDS011;39837;47.630;18.822;2023-09-19T16:07:56;10.00;;;1.25;;
53927;SDS011;39837;47.630;18.822;2023-09-19T16:10:40;1.73;;;1.65;;
53927;SDS011;39837;47.630;18.822;2023-09-19T16:13:26;0.90;;;0.90;;
53927;SDS011;39837;47.630;18.822;2023-09-19T16:16:12;1.20;;;1.20;;
53927;SDS011;39837;47.630;18.822;2023-09-19T16:18:57;0.90;;;0.90;;
53927;SDS011;39837;47.630;18.822;2023-09-19T16:21:44;1.08;;;1.08;;
53927;SDS011;39837;47.630;18.822;2023-09-19T16:24:28;0.85;;;0.85;;
53927;SDS011;39837;47.630;18.822;2023-09-19T16:27:13;7.38;;;1.45;;
53927;SDS011;39837;47.630;18.822;2023-09-19T16:29:59;0.70;;;0.70;;
53927;SDS011;39837;47.630;18.822;2023-09-19T16:32:43;0.88;;;0.88;;
53927;SDS011;39837;47.630;18.822;2023-09-19T16:35:28;0.70;;;0.70;;
53927;SDS011;39837;47.630;18.822;2023-09-19T16:38:13;0.90;;;0.90;;
53927;SDS011;39837;47.630;18.822;2023-09-19T16:40:58;1.13;;;1.10;;
53927;SDS011;39837;47.630;18.822;2023-09-19T16:43:43;0.80;;;0.80;;
53927;SDS011;39837;47.630;18.822;2023-09-19T16:46:27;0.90;;;0.90;;
53927;SDS011;39837;47.630;18.822;2023-09-19T16:49:11;1.58;;;1.10;;
53927;SDS011;39837;47.630;18.822;2023-09-19T16:51:56;0.95;;;0.95;;
53927;SDS011;39837;47.630;18.822;2023-09-19T16:54:40;0.82;;;0.82;;
53927;SDS011;39837;47.630;18.822;2023-09-19T16:57:25;20.48;;;1.70;;
53927;SDS011;39837;47.630;18.822;2023-09-19T17:00:09;0.65;;;0.65;;
53927;SDS011;39837;47.630;18.822;2023-09-19T17:02:54;0.90;;;0.90;;
53927;SDS011;39837;47.630;18.822;2023-09-19T17:05:41;0.65;;;0.65;;
53927;SDS011;39837;47.630;18.822;2023-09-19T17:08:27;2.05;;;1.02;;
53927;SDS011;39837;47.630;18.822;2023-09-19T17:11:14;1.05;;;1.05;;
53927;SDS011;39837;47.630;18.822;2023-09-19T17:14:01;1.95;;;1.20;;
53927;SDS011;39837;47.630;18.822;2023-09-19T17:16:46;0.82;;;0.82;;